Time;durP1;ratioP1;P1;durP2;ratioP2;P2;SDS_P1;SDS_P2;PMS_P1;PMS_P2;Temp;Humidity;BMP_temperature;BMP_pressure;BME280_temperature;BME280_humidity;BME280_pressure;Samples;Min_cycle;Max_cycle;Signal;HPM_P1;HPM_P2
2021/03/24 00:01:57;;;;;;;68.43;43.15;;;;;;;;;;4955861;29;20062;-64
2021/03/24 00:05:03;;;;;;;68.40;43.65;;;;;;;;;;4955498;29;20167;-65
2021/03/24 00:08:09;;;;;;;66.93;43.28;;;;;;;;;;4956092;29;20051;-64
2021/03/24 00:11:14;;;;;;;67.10;42.70;;;;;;;;;;4955532;29;20389;-64
2021/03/24 00:14:19;;;;;;;65.72;43.15;;;;;;;;;;4955279;29;20640;-65
2021/03/24 00:17:24;;;;;;;70.68;43.30;;;;;;;;;;4955339;29;20050;-64
2021/03/24 00:20:30;;;;;;;70.28;43.65;;;;;;;;;;4955591;29;20055;-65
2021/03/24 00:23:35;;;;;;;68.47;44.30;;;;;;;;;;4957519;28;20062;-64
2021/03/24 00:26:40;;;;;;;70.93;44.38;;;;;;;;;;4974498;28;20141;-64
2021/03/24 00:29:45;;;;;;;71.47;43.30;;;;;;;;;;4974272;28;20129;-65
2021/03/24 00:32:50;;;;;;;69.80;44.60;;;;;;;;;;4974595;28;20069;-64
2021/03/24 00:35:56;;;;;;;64.35;41.95;;;;;;;;;;4974047;28;20382;-64
2021/03/24 00:39:01;;;;;;;70.72;42.35;;;;;;;;;;4974579;28;20161;-65
2021/03/24 00:42:06;;;;;;;66.43;40.90;;;;;;;;;;4974280;28;20083;-64
2021/03/24 00:45:12;;;;;;;70.70;43.35;;;;;;;;;;4974062;28;20058;-65
2021/03/24 00:48:22;;;;;;;65.47;41.75;;;;;;;;;;4974264;28;20085;-65
2021/03/24 00:51:27;;;;;;;75.50;44.92;;;;;;;;;;4973464;28;20055;-65
2021/03/24 00:54:32;;;;;;;75.53;43.80;;;;;;;;;;4973731;28;20515;-65
2021/03/24 00:57:38;;;;;;;74.95;43.08;;;;;;;;;;4973979;28;20141;-65
2021/03/24 01:00:44;;;;;;;70.45;45.80;;;;;;;;;;4973835;28;20137;-65
2021/03/24 01:03:49;;;;;;;74.88;42.40;;;;;;;;;;4973862;28;20420;-65
2021/03/24 01:06:54;;;;;;;75.93;44.35;;;;;;;;;;4963111;28;20091;-65
2021/03/24 01:09:59;;;;;;;75.22;43.80;;;;;;;;;;4973938;28;20142;-65
2021/03/24 01:13:04;;;;;;;77.22;43.28;;;;;;;;;;4973875;28;20059;-65
2021/03/24 01:16:09;;;;;;;75.18;43.42;;;;;;;;;;4973463;28;20051;-65
2021/03/24 01:19:14;;;;;;;70.07;39.92;;;;;;;;;;4973823;28;20461;-65
2021/03/24 01:22:20;;;;;;;75.47;42.00;;;;;;;;;;4972712;28;20050;-65
2021/03/24 01:25:25;;;;;;;73.43;43.63;;;;;;;;;;4973271;28;20051;-65
2021/03/24 01:28:30;;;;;;;78.85;44.55;;;;;;;;;;4973657;28;20090;-65
2021/03/24 01:31:35;;;;;;;80.35;44.35;;;;;;;;;;4973262;28;20061;-65
2021/03/24 01:34:40;;;;;;;78.88;43.03;;;;;;;;;;4973304;28;20061;-65
2021/03/24 01:37:45;;;;;;;83.97;46.92;;;;;;;;;;4973161;28;20186;-65
2021/03/24 01:40:52;;;;;;;88.50;45.70;;;;;;;;;;4973117;28;20627;-65
2021/03/24 01:43:57;;;;;;;82.90;46.22;;;;;;;;;;4954063;29;20082;-65
2021/03/24 01:47:02;;;;;;;84.32;46.50;;;;;;;;;;4953987;29;20061;-65
2021/03/24 01:50:18;;;;;;;84.57;47.95;;;;;;;;;;4953968;29;20047;-65
2021/03/24 01:53:23;;;;;;;92.43;48.58;;;;;;;;;;4969626;28;20123;-65
2021/03/24 01:56:29;;;;;;;99.05;51.85;;;;;;;;;;4972543;28;20535;-65
2021/03/24 01:59:34;;;;;;;90.97;49.15;;;;;;;;;;4973060;28;20059;-65
2021/03/24 02:02:39;;;;;;;94.10;49.45;;;;;;;;;;4972190;28;20043;-65
2021/03/24 02:05:45;;;;;;;100.45;51.22;;;;;;;;;;4972688;28;20057;-65
2021/03/24 02:09:20;;;;;;;103.80;51.88;;;;;;;;;;4972913;28;20086;-65
2021/03/24 02:12:33;;;;;;;104.60;53.15;;;;;;;;;;4972661;28;20051;-65
2021/03/24 02:15:38;;;;;;;;;;;;;;;;;;4962088;28;20170;-65
2021/03/24 02:18:44;;;;;;;109.38;52.67;;;;;;;;;;4972811;28;19922;-65
2021/03/24 02:21:49;;;;;;;104.28;53.47;;;;;;;;;;4961879;28;20054;-65
2021/03/24 02:24:56;;;;;;;111.05;56.13;;;;;;;;;;4961266;28;20061;-65
2021/03/24 02:28:00;;;;;;;110.45;54.65;;;;;;;;;;5040519;23;20136;-63
2021/03/24 02:31:05;;;;;;;109.72;54.08;;;;;;;;;;4991947;28;20452;-63
2021/03/24 02:34:11;;;;;;;113.43;56.38;;;;;;;;;;4979683;28;20054;-63
2021/03/24 02:37:17;;;;;;;109.55;57.55;;;;;;;;;;4980868;28;20189;-63
2021/03/24 02:40:22;;;;;;;107.60;53.83;;;;;;;;;;4980897;28;20057;-63
2021/03/24 02:43:28;;;;;;;108.75;55.40;;;;;;;;;;4978484;28;20159;-63
2021/03/24 02:46:33;;;;;;;113.35;56.25;;;;;;;;;;4961268;28;20190;-62
2021/03/24 02:49:39;;;;;;;109.03;54.97;;;;;;;;;;4961551;28;20156;-62
2021/03/24 02:52:44;;;;;;;105.47;54.65;;;;;;;;;;4950610;28;20054;-62
2021/03/24 02:55:50;;;;;;;105.47;53.55;;;;;;;;;;4990163;28;20058;-63
2021/03/24 02:58:55;;;;;;;113.57;54.50;;;;;;;;;;4991570;28;20054;-63
2021/03/24 03:02:03;;;;;;;109.13;52.60;;;;;;;;;;4991635;28;20472;-62
2021/03/24 03:05:09;;;;;;;107.70;53.08;;;;;;;;;;4970303;28;20055;-62
2021/03/24 03:08:23;;;;;;;111.60;53.75;;;;;;;;;;4961223;28;20042;-63
2021/03/24 03:11:37;;;;;;;122.95;56.45;;;;;;;;;;4961308;28;20122;-63
2021/03/24 03:14:48;;;;;;;110.95;52.40;;;;;;;;;;4974367;28;20053;-63
2021/03/24 03:18:10;;;;;;;110.93;51.95;;;;;;;;;;4964806;28;20050;-63
2021/03/24 03:21:16;;;;;;;111.47;53.30;;;;;;;;;;4965083;28;20047;-63
2021/03/24 03:24:24;;;;;;;112.22;55.88;;;;;;;;;;4975228;28;20386;-63
2021/03/24 03:27:30;;;;;;;110.80;54.47;;;;;;;;;;4964768;28;20062;-62
2021/03/24 03:30:36;;;;;;;111.55;51.20;;;;;;;;;;4964789;28;20065;-63
2021/03/24 03:33:42;;;;;;;106.05;48.53;;;;;;;;;;4964912;28;20055;-62
2021/03/24 03:36:49;;;;;;;109.43;52.95;;;;;;;;;;4979048;28;20042;-63
2021/03/24 03:39:54;;;;;;;117.75;53.05;;;;;;;;;;4984120;28;20197;-62
2021/03/24 03:42:59;;;;;;;116.28;50.75;;;;;;;;;;4983980;28;20055;-62
2021/03/24 03:46:05;;;;;;;122.38;54.28;;;;;;;;;;4976471;28;20089;-62
2021/03/24 03:49:10;;;;;;;127.97;55.10;;;;;;;;;;4963339;28;20058;-62
2021/03/24 03:52:31;;;;;;;125.93;55.67;;;;;;;;;;4964468;28;20085;-62
2021/03/24 03:55:45;;;;;;;127.20;57.08;;;;;;;;;;4964047;28;20051;-62
2021/03/24 03:58:54;;;;;;;134.68;57.70;;;;;;;;;;4983604;28;20064;-62
2021/03/24 04:02:00;;;;;;;157.50;62.10;;;;;;;;;;4983655;28;20059;-62
2021/03/24 04:05:06;;;;;;;145.18;60.63;;;;;;;;;;4994409;28;20052;-62
2021/03/24 04:08:12;;;;;;;145.02;61.17;;;;;;;;;;4966076;28;20051;-63
2021/03/24 04:11:18;;;;;;;156.13;62.58;;;;;;;;;;4953396;28;20046;-62
2021/03/24 04:14:24;;;;;;;165.05;65.13;;;;;;;;;;4963666;28;20057;-62
2021/03/24 04:17:30;;;;;;;173.68;67.28;;;;;;;;;;4972043;28;20517;-62
2021/03/24 04:20:36;;;;;;;172.82;63.92;;;;;;;;;;4994274;28;20463;-63
2021/03/24 04:23:46;;;;;;;173.70;65.45;;;;;;;;;;4983350;28;20074;-62
2021/03/24 04:26:53;;;;;;;151.60;59.08;;;;;;;;;;4992042;28;20054;-62
2021/03/24 04:30:03;;;;;;;193.38;67.53;;;;;;;;;;4974664;28;20051;-63
2021/03/24 04:33:09;;;;;;;173.75;64.93;;;;;;;;;;4974582;28;20050;-62
2021/03/24 04:36:17;;;;;;;154.43;63.05;;;;;;;;;;4974322;28;20395;-62
2021/03/24 04:39:25;;;;;;;151.88;62.65;;;;;;;;;;4981387;28;20050;-63
2021/03/24 04:42:35;;;;;;;183.20;68.15;;;;;;;;;;4993789;28;20047;-62
2021/03/24 04:45:43;;;;;;;196.95;70.88;;;;;;;;;;4982331;28;20513;-63
2021/03/24 04:48:51;;;;;;;181.68;66.78;;;;;;;;;;4970455;28;20551;-62
2021/03/24 04:51:56;;;;;;;233.82;71.43;;;;;;;;;;4982384;28;20054;-63
2021/03/24 04:55:04;;;;;;;199.38;70.30;;;;;;;;;;4973934;28;20197;-62
2021/03/24 04:58:11;;;;;;;218.63;79.22;;;;;;;;;;4965449;28;20054;-62
2021/03/24 05:01:16;;;;;;;161.48;64.95;;;;;;;;;;4993506;28;20061;-62
2021/03/24 05:04:31;;;;;;;173.65;67.90;;;;;;;;;;4993134;28;20046;-62
2021/03/24 05:08:06;;;;;;;239.18;83.30;;;;;;;;;;4982451;28;20057;-64
2021/03/24 05:11:14;;;;;;;248.95;84.13;;;;;;;;;;4926863;28;20152;-62
2021/03/24 05:14:22;;;;;;;247.65;86.88;;;;;;;;;;4973605;28;20059;-63
2021/03/24 05:17:28;;;;;;;217.20;77.50;;;;;;;;;;4973601;28;20072;-62
2021/03/24 05:20:38;;;;;;;210.80;71.45;;;;;;;;;;4978253;28;20052;-62
2021/03/24 05:23:45;;;;;;;197.05;69.57;;;;;;;;;;4981999;28;20038;-63
2021/03/24 05:26:51;;;;;;;223.50;74.78;;;;;;;;;;4992942;28;20197;-62
2021/03/24 05:29:59;;;;;;;247.90;81.35;;;;;;;;;;4992437;28;20054;-62
2021/03/24 05:33:14;;;;;;;240.23;77.18;;;;;;;;;;4981732;28;20054;-62
2021/03/24 05:36:23;;;;;;;203.57;70.93;;;;;;;;;;4962345;28;20051;-62
2021/03/24 05:39:29;;;;;;;266.52;83.75;;;;;;;;;;4962568;28;20053;-62
2021/03/24 05:42:40;;;;;;;336.45;80.38;;;;;;;;;;4975854;28;20053;-62
2021/03/24 05:45:49;;;;;;;215.00;78.05;;;;;;;;;;4981451;28;20054;-63
2021/03/24 05:49:02;;;;;;;333.33;84.97;;;;;;;;;;4980477;28;20117;-62
2021/03/24 05:52:07;;;;;;;281.92;83.03;;;;;;;;;;4981614;28;20058;-62
2021/03/24 05:55:12;;;;;;;256.63;87.00;;;;;;;;;;4992299;28;20056;-62
2021/03/24 05:58:18;;;;;;;282.75;88.72;;;;;;;;;;4992231;28;20051;-62
2021/03/24 06:01:27;;;;;;;280.25;89.97;;;;;;;;;;4981550;28;20386;-62
2021/03/24 06:04:34;;;;;;;307.67;92.53;;;;;;;;;;4988633;28;20394;-62
2021/03/24 06:07:58;;;;;;;318.05;93.50;;;;;;;;;;4981462;28;20065;-63
2021/03/24 06:11:04;;;;;;;311.70;92.32;;;;;;;;;;4992307;28;20066;-62
2021/03/24 06:14:20;;;;;;;299.80;92.07;;;;;;;;;;4972788;28;20054;-62
2021/03/24 06:17:25;;;;;;;357.08;99.32;;;;;;;;;;4972606;28;20058;-62
2021/03/24 06:20:41;;;;;;;319.95;97.15;;;;;;;;;;4972818;28;20061;-62
2021/03/24 06:24:09;;;;;;;332.75;96.90;;;;;;;;;;4973081;28;20054;-62
2021/03/24 06:27:18;;;;;;;345.30;102.47;;;;;;;;;;4961810;28;20061;-62
2021/03/24 06:30:27;;;;;;;336.23;96.95;;;;;;;;;;4961823;28;20445;-63
2021/03/24 06:33:50;;;;;;;359.15;106.32;;;;;;;;;;4984388;28;20050;-63
2021/03/24 06:36:59;;;;;;;354.95;107.18;;;;;;;;;;4990897;28;20055;-63
2021/03/24 06:40:04;;;;;;;371.88;111.35;;;;;;;;;;4992999;28;20109;-63
2021/03/24 06:43:09;;;;;;;369.08;111.43;;;;;;;;;;4986198;28;20416;-63
2021/03/24 06:46:21;;;;;;;362.92;116.30;;;;;;;;;;4972666;28;20058;-63
2021/03/24 06:49:32;;;;;;;354.77;120.50;;;;;;;;;;4961944;28;20152;-63
2021/03/24 06:52:53;;;;;;;390.75;124.80;;;;;;;;;;4962195;28;20170;-63
2021/03/24 06:56:05;;;;;;;393.27;123.90;;;;;;;;;;4961973;28;20524;-63
2021/03/24 06:59:14;;;;;;;330.00;115.72;;;;;;;;;;4962794;28;20591;-62
2021/03/24 07:02:22;;;;;;;289.98;109.47;;;;;;;;;;4973531;28;20113;-63
2021/03/24 07:05:46;;;;;;;287.67;110.07;;;;;;;;;;4992103;28;20046;-63
2021/03/24 07:08:56;;;;;;;248.43;98.68;;;;;;;;;;4993020;28;20101;-63
2021/03/24 07:12:04;;;;;;;207.68;91.30;;;;;;;;;;4982651;28;20054;-63
2021/03/24 07:15:18;;;;;;;236.55;99.30;;;;;;;;;;4968777;28;20047;-63
2021/03/24 07:18:34;;;;;;;197.75;88.57;;;;;;;;;;4974092;28;20054;-63
2021/03/24 07:21:58;;;;;;;181.70;86.82;;;;;;;;;;4963842;28;20050;-63
2021/03/24 07:25:22;;;;;;;158.55;81.00;;;;;;;;;;4983360;28;20042;-63
2021/03/24 07:28:31;;;;;;;149.25;76.07;;;;;;;;;;4963468;28;20055;-62
2021/03/24 07:32:00;;;;;;;160.82;82.32;;;;;;;;;;4972915;28;20405;-63
2021/03/24 07:35:13;;;;;;;129.68;70.80;;;;;;;;;;4961776;28;20055;-63
2021/03/24 07:38:36;;;;;;;119.90;65.95;;;;;;;;;;4964651;28;20613;-65
2021/03/24 07:42:01;;;;;;;118.75;66.57;;;;;;;;;;4978274;28;20050;-63
2021/03/24 07:45:27;;;;;;;113.28;63.00;;;;;;;;;;4962420;28;20120;-63
2021/03/24 07:48:51;;;;;;;106.15;61.00;;;;;;;;;;4971975;28;20063;-64
2021/03/24 07:52:03;;;;;;;100.18;60.10;;;;;;;;;;4971800;28;20140;-64
2021/03/24 07:55:15;;;;;;;96.47;61.15;;;;;;;;;;4973700;28;20105;-64
2021/03/24 07:58:23;;;;;;;106.10;64.60;;;;;;;;;;4980175;28;20081;-64
2021/03/24 08:01:35;;;;;;;94.53;55.40;;;;;;;;;;4979640;28;20053;-64
2021/03/24 08:04:43;;;;;;;91.20;55.88;;;;;;;;;;4994462;28;20054;-64
2021/03/24 08:08:08;;;;;;;99.70;59.55;;;;;;;;;;4974808;28;20592;-64
2021/03/24 08:11:22;;;;;;;94.40;57.13;;;;;;;;;;4975222;28;20158;-64
2021/03/24 08:14:29;;;;;;;81.88;54.85;;;;;;;;;;4963794;28;20781;-64
2021/03/24 08:17:53;;;;;;;82.57;53.70;;;;;;;;;;4969443;28;20048;-64
2021/03/24 08:20:50;;;;;;;76.18;50.35;;;;;;;;;;4995155;28;20497;-64
2021/03/24 08:23:38;;;;;;;77.97;50.53;;;;;;;;;;4994242;28;20094;-64
2021/03/24 08:26:26;;;;;;;78.20;51.60;;;;;;;;;;4990873;28;20042;-63
2021/03/24 08:29:14;;;;;;;80.28;50.78;;;;;;;;;;4974696;28;20046;-64
2021/03/24 08:32:05;;;;;;;77.97;51.13;;;;;;;;;;4974656;28;20442;-64
2021/03/24 08:34:59;;;;;;;82.68;51.80;;;;;;;;;;4975223;28;20043;-63
2021/03/24 08:37:47;;;;;;;73.22;50.72;;;;;;;;;;4975673;28;20038;-63
2021/03/24 08:40:39;;;;;;;74.07;48.67;;;;;;;;;;4976565;28;20054;-63
2021/03/24 08:43:42;;;;;;;80.45;48.05;;;;;;;;;;4974507;28;20047;-63
2021/03/24 08:46:28;;;;;;;72.03;49.60;;;;;;;;;;4976060;28;20047;-63
2021/03/24 08:49:17;;;;;;;68.93;47.63;;;;;;;;;;4975140;28;20062;-63
2021/03/24 08:52:06;;;;;;;70.35;47.15;;;;;;;;;;4975361;28;20379;-63
2021/03/24 08:54:54;;;;;;;73.75;49.03;;;;;;;;;;4974930;28;20051;-63
2021/03/24 08:57:57;;;;;;;76.53;48.13;;;;;;;;;;4994356;28;20053;-63
2021/03/24 09:00:45;;;;;;;67.20;46.05;;;;;;;;;;4994433;28;20114;-63
2021/03/24 09:03:49;;;;;;;63.20;42.72;;;;;;;;;;4993407;28;20050;-63
2021/03/24 09:06:39;;;;;;;61.72;40.80;;;;;;;;;;4985633;28;20050;-63
2021/03/24 09:09:36;;;;;;;62.67;40.97;;;;;;;;;;4973863;28;20047;-63
2021/03/24 09:12:34;;;;;;;55.75;37.70;;;;;;;;;;4973337;28;20504;-63
2021/03/24 09:15:24;;;;;;;57.03;38.65;;;;;;;;;;4973661;28;20177;-63
2021/03/24 09:18:22;;;;;;;55.42;35.90;;;;;;;;;;4981350;28;20500;-63
2021/03/24 09:21:36;;;;;;;60.78;40.35;;;;;;;;;;4983870;28;20042;-64
2021/03/24 09:24:28;;;;;;;52.70;35.53;;;;;;;;;;4931964;28;20404;-63
2021/03/24 09:27:20;;;;;;;53.72;35.13;;;;;;;;;;4983119;28;20102;-64
2021/03/24 09:30:18;;;;;;;54.42;35.75;;;;;;;;;;4984403;28;20050;-64
2021/03/24 09:33:07;;;;;;;54.97;35.78;;;;;;;;;;4983435;28;20038;-64
2021/03/24 09:36:11;;;;;;;49.20;34.75;;;;;;;;;;4984467;28;20042;-64
2021/03/24 09:38:56;;;;;;;54.28;35.97;;;;;;;;;;4984525;28;20042;-63
2021/03/24 09:41:42;;;;;;;50.58;32.42;;;;;;;;;;4983638;28;20039;-64
2021/03/24 09:44:31;;;;;;;45.85;31.58;;;;;;;;;;4983310;28;20038;-64
2021/03/24 09:47:38;;;;;;;49.13;31.88;;;;;;;;;;4982038;28;20057;-64
2021/03/24 09:50:34;;;;;;;46.22;30.45;;;;;;;;;;4985031;28;20065;-64
2021/03/24 09:53:26;;;;;;;46.75;29.60;;;;;;;;;;4982134;28;20039;-63
2021/03/24 09:56:16;;;;;;;48.10;32.20;;;;;;;;;;4984989;28;20050;-64
2021/03/24 09:59:03;;;;;;;41.35;29.73;;;;;;;;;;4973970;28;20051;-65
2021/03/24 10:01:54;;;;;;;43.70;30.42;;;;;;;;;;4976852;28;20042;-64
2021/03/24 10:04:41;;;;;;;42.28;31.20;;;;;;;;;;4982074;28;20612;-64
2021/03/24 10:07:27;;;;;;;45.10;33.88;;;;;;;;;;4983078;28;20046;-63
2021/03/24 10:10:21;;;;;;;50.17;33.97;;;;;;;;;;4983343;28;20030;-64
2021/03/24 10:13:09;;;;;;;49.83;32.33;;;;;;;;;;4976002;28;20054;-64
2021/03/24 10:15:55;;;;;;;44.80;32.30;;;;;;;;;;4985704;28;20494;-64
2021/03/24 10:18:43;;;;;;;49.03;33.42;;;;;;;;;;4985351;28;20043;-63
2021/03/24 10:21:41;;;;;;;48.90;33.42;;;;;;;;;;4991728;28;20374;-64
2021/03/24 10:24:27;;;;;;;44.08;30.02;;;;;;;;;;4977498;28;20054;-64
2021/03/24 10:27:14;;;;;;;47.40;31.20;;;;;;;;;;4991621;28;20154;-64
2021/03/24 10:29:59;;;;;;;43.95;31.95;;;;;;;;;;4991942;28;20050;-64
2021/03/24 10:32:50;;;;;;;56.55;32.22;;;;;;;;;;4980381;28;20055;-63
2021/03/24 10:35:37;;;;;;;44.55;28.83;;;;;;;;;;4972033;28;20051;-65
2021/03/24 10:38:27;;;;;;;41.40;29.00;;;;;;;;;;4973198;28;20039;-64
2021/03/24 10:41:17;;;;;;;45.63;30.65;;;;;;;;;;4972291;28;20138;-65
2021/03/24 10:44:11;;;;;;;42.60;28.58;;;;;;;;;;4990890;28;20047;-65
2021/03/24 10:47:04;;;;;;;41.50;29.00;;;;;;;;;;4992587;28;20038;-65
2021/03/24 10:50:01;;;;;;;49.17;29.80;;;;;;;;;;4991681;28;20121;-65
2021/03/24 10:52:59;;;;;;;38.63;27.98;;;;;;;;;;4985532;28;20045;-65
2021/03/24 10:55:45;;;;;;;41.85;28.20;;;;;;;;;;4972871;28;20047;-65
2021/03/24 10:58:36;;;;;;;42.90;28.10;;;;;;;;;;4971802;28;20047;-65
2021/03/24 11:01:31;;;;;;;36.28;25.95;;;;;;;;;;4972295;28;20699;-65
2021/03/24 11:04:35;;;;;;;36.75;25.55;;;;;;;;;;4987768;28;20493;-65
2021/03/24 11:07:34;;;;;;;33.65;25.40;;;;;;;;;;4992318;28;20122;-65
2021/03/24 11:10:31;;;;;;;35.97;26.30;;;;;;;;;;4991380;28;20046;-65
2021/03/24 11:13:18;;;;;;;35.42;24.85;;;;;;;;;;4986577;28;20480;-65
2021/03/24 11:16:08;;;;;;;35.22;26.25;;;;;;;;;;4972800;28;20070;-64
2021/03/24 11:18:55;;;;;;;37.53;27.38;;;;;;;;;;4971968;28;20039;-64
2021/03/24 11:21:58;;;;;;;37.65;26.80;;;;;;;;;;4981292;28;20050;-64
2021/03/24 11:24:48;;;;;;;38.90;26.63;;;;;;;;;;4992114;28;20050;-64
2021/03/24 11:27:40;;;;;;;35.97;24.13;;;;;;;;;;4985159;28;20513;-64
2021/03/24 11:30:30;;;;;;;33.22;24.00;;;;;;;;;;4972038;28;20055;-64
2021/03/24 11:33:17;;;;;;;41.50;25.65;;;;;;;;;;4971828;28;20485;-64
2021/03/24 11:36:11;;;;;;;35.00;25.35;;;;;;;;;;4973394;28;20070;-64
2021/03/24 11:38:58;;;;;;;33.50;24.35;;;;;;;;;;4976777;28;20043;-64
2021/03/24 11:41:43;;;;;;;34.42;24.83;;;;;;;;;;4994998;28;20046;-64
2021/03/24 11:44:30;;;;;;;38.55;26.23;;;;;;;;;;4994849;28;20146;-65
2021/03/24 11:47:35;;;;;;;38.10;23.48;;;;;;;;;;4994821;28;20042;-65
2021/03/24 11:50:30;;;;;;;34.33;25.08;;;;;;;;;;4976121;28;20084;-65
2021/03/24 11:53:30;;;;;;;36.20;24.73;;;;;;;;;;4975353;28;20043;-65
2021/03/24 11:56:17;;;;;;;36.63;24.83;;;;;;;;;;4974887;28;20098;-64
2021/03/24 11:59:14;;;;;;;42.00;23.67;;;;;;;;;;4975547;28;20552;-65
2021/03/24 12:02:18;;;;;;;34.30;25.63;;;;;;;;;;4975231;28;20139;-64
2021/03/24 12:05:06;;;;;;;42.38;25.98;;;;;;;;;;4975761;28;20051;-65
2021/03/24 12:07:57;;;;;;;33.25;24.17;;;;;;;;;;4976100;28;20043;-65
2021/03/24 12:10:43;;;;;;;31.88;24.27;;;;;;;;;;4975047;28;20055;-65
2021/03/24 12:13:29;;;;;;;33.13;23.70;;;;;;;;;;4975844;28;20047;-65
2021/03/24 12:16:19;;;;;;;32.88;24.85;;;;;;;;;;4975626;28;20050;-65
2021/03/24 12:19:04;;;;;;;39.88;26.35;;;;;;;;;;4980523;28;20177;-65
2021/03/24 12:21:52;;;;;;;33.05;23.75;;;;;;;;;;4995183;28;20057;-65
2021/03/24 12:24:38;;;;;;;34.45;24.30;;;;;;;;;;4993789;28;20496;-65
2021/03/24 12:27:24;;;;;;;36.10;22.70;;;;;;;;;;4976696;28;20276;-65
2021/03/24 12:30:15;;;;;;;37.08;25.23;;;;;;;;;;4970345;28;20066;-65
2021/03/24 12:33:07;;;;;;;34.30;25.17;;;;;;;;;;4979276;28;20077;-65
2021/03/24 12:36:20;;;;;;;32.25;24.77;;;;;;;;;;4984126;28;20077;-65
2021/03/24 12:39:06;;;;;;;34.50;24.65;;;;;;;;;;4990034;28;20445;-65
2021/03/24 12:41:51;;;;;;;36.85;24.70;;;;;;;;;;4991801;28;20038;-65
2021/03/24 12:44:37;;;;;;;39.45;24.92;;;;;;;;;;4993097;28;20074;-65
2021/03/24 12:47:31;;;;;;;35.75;24.83;;;;;;;;;;4993540;28;20132;-65
2021/03/24 12:50:21;;;;;;;32.25;24.85;;;;;;;;;;4993930;28;20429;-65
2021/03/24 12:53:18;;;;;;;33.78;26.45;;;;;;;;;;4990274;28;20497;-65
2021/03/24 12:56:03;;;;;;;34.03;24.73;;;;;;;;;;4986832;28;20130;-65
2021/03/24 12:58:52;;;;;;;36.38;24.90;;;;;;;;;;4988620;28;20042;-65
2021/03/24 13:01:45;;;;;;;33.50;23.40;;;;;;;;;;4984066;28;20066;-64
2021/03/24 13:04:30;;;;;;;36.47;24.85;;;;;;;;;;4986757;28;20169;-64
2021/03/24 13:07:27;;;;;;;39.70;25.95;;;;;;;;;;4981215;28;20058;-64
2021/03/24 13:10:36;;;;;;;35.08;24.90;;;;;;;;;;4981460;28;20051;-64
2021/03/24 13:13:24;;;;;;;36.65;24.13;;;;;;;;;;4983667;28;20054;-64
2021/03/24 13:16:29;;;;;;;33.80;26.63;;;;;;;;;;4981789;28;20502;-64
2021/03/24 13:19:32;;;;;;;41.35;26.10;;;;;;;;;;4982802;28;20050;-64
2021/03/24 13:22:19;;;;;;;34.42;25.20;;;;;;;;;;4994240;28;20042;-64
2021/03/24 13:25:04;;;;;;;37.15;27.45;;;;;;;;;;4990022;28;20052;-64
2021/03/24 13:28:11;;;;;;;33.78;26.92;;;;;;;;;;4989084;28;20054;-64
2021/03/24 13:31:03;;;;;;;37.38;26.52;;;;;;;;;;4980324;28;20038;-64
2021/03/24 13:34:07;;;;;;;36.67;26.23;;;;;;;;;;4991954;28;20456;-64
2021/03/24 13:36:53;;;;;;;34.70;25.13;;;;;;;;;;4991451;28;20093;-64
2021/03/24 13:39:43;;;;;;;37.95;26.92;;;;;;;;;;4985525;28;20074;-64
2021/03/24 13:42:32;;;;;;;34.58;26.77;;;;;;;;;;4990864;28;20386;-64
2021/03/24 13:45:36;;;;;;;35.90;26.42;;;;;;;;;;4989989;28;20046;-64
2021/03/24 13:48:34;;;;;;;41.78;26.80;;;;;;;;;;4977613;28;20062;-65
2021/03/24 13:51:27;;;;;;;36.92;26.63;;;;;;;;;;4982718;28;20046;-65
2021/03/24 13:54:24;;;;;;;37.60;26.92;;;;;;;;;;4987533;28;20046;-65
2021/03/24 13:57:28;;;;;;;36.88;27.35;;;;;;;;;;4978047;28;20042;-65
2021/03/24 14:00:20;;;;;;;39.17;26.13;;;;;;;;;;4987794;28;20450;-64
2021/03/24 14:03:26;;;;;;;36.78;27.17;;;;;;;;;;4978102;28;20050;-65
2021/03/24 14:06:14;;;;;;;38.35;26.02;;;;;;;;;;4981986;28;20149;-64
2021/03/24 14:09:02;;;;;;;36.85;27.42;;;;;;;;;;4980449;28;20133;-64
2021/03/24 14:12:05;;;;;;;34.50;26.30;;;;;;;;;;4983501;28;20054;-64
2021/03/24 14:14:53;;;;;;;36.53;25.75;;;;;;;;;;4992178;28;20073;-64
2021/03/24 14:17:40;;;;;;;38.50;26.33;;;;;;;;;;4983502;28;20043;-64
2021/03/24 14:20:29;;;;;;;34.55;27.85;;;;;;;;;;4987580;28;20074;-64
2021/03/24 14:23:33;;;;;;;37.60;27.88;;;;;;;;;;4987311;28;20047;-65
2021/03/24 14:26:29;;;;;;;38.15;28.67;;;;;;;;;;4987342;28;20123;-65
2021/03/24 14:29:40;;;;;;;39.58;29.20;;;;;;;;;;4979058;28;20065;-64
2021/03/24 14:32:27;;;;;;;38.40;28.95;;;;;;;;;;4981224;28;20057;-64
2021/03/24 14:35:25;;;;;;;42.35;28.95;;;;;;;;;;4985138;28;20137;-65
2021/03/24 14:38:25;;;;;;;37.03;28.10;;;;;;;;;;4986625;28;20504;-65
2021/03/24 14:41:15;;;;;;;41.38;30.58;;;;;;;;;;4982785;28;20129;-65
2021/03/24 14:44:17;;;;;;;40.35;30.20;;;;;;;;;;4988114;28;20078;-66
2021/03/24 14:47:18;;;;;;;41.90;28.93;;;;;;;;;;4975268;28;20121;-66
2021/03/24 14:50:14;;;;;;;40.30;28.00;;;;;;;;;;4986820;28;20442;-65
2021/03/24 14:53:04;;;;;;;40.55;30.10;;;;;;;;;;4983666;28;20049;-64
2021/03/24 14:56:02;;;;;;;40.17;29.50;;;;;;;;;;4987065;28;20070;-64
2021/03/24 14:58:57;;;;;;;39.15;29.23;;;;;;;;;;4982913;28;20047;-65
2021/03/24 15:01:44;;;;;;;41.35;30.20;;;;;;;;;;4979476;28;20450;-65
2021/03/24 15:04:34;;;;;;;43.65;30.90;;;;;;;;;;4979344;28;20042;-63
2021/03/24 15:07:25;;;;;;;42.78;30.58;;;;;;;;;;4983166;28;20054;-65
2021/03/24 15:10:10;;;;;;;40.38;30.23;;;;;;;;;;4986604;28;20061;-65
2021/03/24 15:12:56;;;;;;;39.45;30.15;;;;;;;;;;4989078;28;20416;-64
2021/03/24 15:15:51;;;;;;;43.00;29.77;;;;;;;;;;4981910;28;20054;-65
2021/03/24 15:18:55;;;;;;;41.15;30.48;;;;;;;;;;4982899;28;20038;-65
2021/03/24 15:21:59;;;;;;;40.25;30.00;;;;;;;;;;4990521;28;20042;-65
2021/03/24 15:24:47;;;;;;;39.50;29.80;;;;;;;;;;4988085;28;20046;-65
2021/03/24 15:27:34;;;;;;;38.88;30.58;;;;;;;;;;4982389;28;20043;-65
2021/03/24 15:30:29;;;;;;;43.22;31.35;;;;;;;;;;4989377;28;20050;-65
2021/03/24 15:33:15;;;;;;;42.25;29.38;;;;;;;;;;4990014;28;20050;-65
2021/03/24 15:36:02;;;;;;;41.25;29.88;;;;;;;;;;4986201;28;20137;-65
2021/03/24 15:38:49;;;;;;;41.60;31.50;;;;;;;;;;4992872;28;20046;-65
2021/03/24 15:41:36;;;;;;;39.67;29.58;;;;;;;;;;4991728;28;20038;-63
2021/03/24 15:44:24;;;;;;;42.03;30.40;;;;;;;;;;4990605;28;20113;-65
2021/03/24 15:47:29;;;;;;;44.60;31.85;;;;;;;;;;5031508;23;20053;-64
2021/03/24 15:50:15;;;;;;;44.97;33.00;;;;;;;;;;5005872;28;20058;-64
2021/03/24 15:53:08;;;;;;;44.58;32.78;;;;;;;;;;5002248;28;20069;-64
2021/03/24 15:55:54;;;;;;;47.53;33.42;;;;;;;;;;5003762;28;20566;-64
2021/03/24 15:58:44;;;;;;;41.65;32.33;;;;;;;;;;5007753;28;20088;-63
2021/03/24 16:01:41;;;;;;;45.55;31.80;;;;;;;;;;5009823;28;20130;-64
2021/03/24 16:04:33;;;;;;;41.03;30.42;;;;;;;;;;4998836;28;20504;-63
2021/03/24 16:07:18;;;;;;;42.60;31.10;;;;;;;;;;5000121;28;20050;-63
2021/03/24 16:10:06;;;;;;;42.92;32.30;;;;;;;;;;4998552;28;20057;-64
2021/03/24 16:12:53;;;;;;;43.97;32.08;;;;;;;;;;4998027;28;20046;-64
2021/03/24 16:15:54;;;;;;;42.65;31.42;;;;;;;;;;5006190;28;20050;-64
2021/03/24 16:18:43;;;;;;;42.38;29.65;;;;;;;;;;5013221;28;20038;-64
2021/03/24 16:21:34;;;;;;;40.42;29.23;;;;;;;;;;4997844;28;20132;-63
2021/03/24 16:24:22;;;;;;;43.92;29.52;;;;;;;;;;5008527;28;20539;-65
2021/03/24 16:27:07;;;;;;;41.70;30.33;;;;;;;;;;5011071;28;20050;-64
2021/03/24 16:29:57;;;;;;;39.67;28.30;;;;;;;;;;5005336;28;20050;-64
2021/03/24 16:32:58;;;;;;;39.92;29.58;;;;;;;;;;5006389;28;20055;-63
2021/03/24 16:35:47;;;;;;;40.17;28.00;;;;;;;;;;5009461;28;20100;-63
2021/03/24 16:38:48;;;;;;;41.42;27.98;;;;;;;;;;5012892;28;20105;-63
2021/03/24 16:41:45;;;;;;;37.13;25.88;;;;;;;;;;5000396;28;20045;-64
2021/03/24 16:44:30;;;;;;;37.40;25.85;;;;;;;;;;5010273;28;20512;-63
2021/03/24 16:47:21;;;;;;;32.83;24.15;;;;;;;;;;5000326;28;20045;-63
2021/03/24 16:50:21;;;;;;;33.88;22.05;;;;;;;;;;5001070;28;20070;-64
2021/03/24 16:53:25;;;;;;;31.98;21.88;;;;;;;;;;5000579;28;20049;-63
2021/03/24 16:56:24;;;;;;;28.33;19.42;;;;;;;;;;4999969;28;20050;-63
2021/03/24 16:59:28;;;;;;;32.33;19.83;;;;;;;;;;4998715;28;20125;-63
2021/03/24 17:02:18;;;;;;;28.38;16.33;;;;;;;;;;4999647;28;20054;-63
2021/03/24 17:05:08;;;;;;;26.60;16.65;;;;;;;;;;4997322;28;20042;-63
2021/03/24 17:08:11;;;;;;;27.38;16.17;;;;;;;;;;5002461;28;20054;-63
2021/03/24 17:11:03;;;;;;;23.65;14.00;;;;;;;;;;4993988;28;20054;-63
2021/03/24 17:13:54;;;;;;;23.85;14.68;;;;;;;;;;5004091;28;20041;-63
2021/03/24 17:16:53;;;;;;;19.35;14.00;;;;;;;;;;5008495;28;20041;-64
2021/03/24 17:19:43;;;;;;;23.98;14.95;;;;;;;;;;5000105;28;20643;-64
2021/03/24 17:22:29;;;;;;;24.42;14.85;;;;;;;;;;4994518;28;20038;-63
2021/03/24 17:25:21;;;;;;;22.02;15.20;;;;;;;;;;4995688;28;20058;-63